• Join FlightAware (Why Join?)
  • Login
  • US Flag 
07:55AM EDT


 

Airport Tracker/Info


-or-


 

Live Flight TrackerFlight Track Log ✈ N888FM ✈ 21-Jul-2014 ✈ KIAD - KAVP

Flight Track Log - Related Links

Times and Time Zones

All times are in EDT time to prevent confusion due to time zone crossing. See the N888FM flight status page for this flight to view local times or setup timezone preferences in your user account.

Time Position Orientation Groundspeed Altitude Reporting Facility
EDT Latitude Longitude Course Direction KTS MPH feet Rate Location/Type
12:14AM 38.9333 -77.5000 333° Northwest 195 224 2,500  Level Potomac TRACON
12:15AM 38.9833 -77.5333 333° Northwest 231 266 3,900 1,560 Climbing Potomac TRACON
12:16AM 39.0500 -77.5500 349° North 234 269 5,800 1,440 Climbing Potomac TRACON
12:17AM 39.1367 -77.5772 346° North 235 270 7,800 1,260 Climbing Washington Center
12:18AM 39.1989 -77.5975 346° North 235 270 9,100 1,200 Climbing Washington Center
12:19AM 39.2608 -77.6314 337° Northwest 235 270 10,200 1,140 Climbing Washington Center
12:20AM 39.3211 -77.6467 349° North 235 270 11,400 1,140 Climbing Washington Center
12:21AM 39.3881 -77.6350 North 230 265 12,500 1,020 Climbing Washington Center
12:24AM 39.5483 -77.6075 North 245 282 14,800 720 Climbing New York Center
12:25AM 39.6144 -77.5842 15° North 245 282 15,000 60 Climbing New York Center
12:26AM 39.6658 -77.5244 42° Northeast 255 293 15,000  Level New York Center
12:27AM 39.7322 -77.4578 38° Northeast 269 310 15,000  Level New York Center
12:28AM 39.7853 -77.4008 40° Northeast 269 310 15,000  Level New York Center
12:29AM 39.8542 -77.3289 39° Northeast 277 319 15,000  Level New York Center
12:30AM 39.9094 -77.2717 38° Northeast 283 326 15,000  Level New York Center
12:31AM 39.9758 -77.2019 39° Northeast 283 326 15,000  Level New York Center
12:32AM 40.0311 -77.1419 40° Northeast 278 320 15,000  Level New York Center
12:33AM 40.0972 -77.0750 38° Northeast 278 320 15,000  Level New York Center
12:34AM 40.1547 -77.0147 39° Northeast 278 320 15,000  Level New York Center
12:35AM 40.2208 -76.9447 39° Northeast 278 320 15,000  Level New York Center
12:36AM 40.2786 -76.8789 41° Northeast 278 320 15,000  Level New York Center
12:37AM 40.3403 -76.8136 39° Northeast 278 320 15,000  Level New York Center
12:38AM 40.3956 -76.7531 40° Northeast 278 320 15,000  Level New York Center
12:39AM 40.4614 -76.6850 38° Northeast 278 320 15,000  Level New York Center
12:40AM 40.5231 -76.6194 39° Northeast 278 320 15,000  Level New York Center
12:41AM 40.5825 -76.5533 40° Northeast 278 320 15,000  Level New York Center
12:42AM 40.6442 -76.4875 39° Northeast 278 320 15,000  Level New York Center
12:43AM 40.6989 -76.4292 39° Northeast 278 320 15,000  Level New York Center
12:44AM 40.7606 -76.3628 39° Northeast 278 320 15,000 -300 Level New York Center
12:45AM 40.8264 -76.2886 40° Northeast 278 320 14,500 -1,020 Descending New York Center
12:46AM 40.8900 -76.2225 38° Northeast 278 320 13,000 -1,560 Descending New York Center
12:47AM 40.9469 -76.1611 39° Northeast 278 320 11,500 -1,500 Descending New York Center
12:48AM 40.9911 -76.1069 43° Northeast 241 277 10,000 -1,740 Descending New York Center
12:49AM 41.0306 -76.0633 40° Northeast 204 235 8,100 -1,920 Descending New York Center
12:50AM 41.0725 -76.0086 45° Northeast 197 227 6,200 -1,800 Descending New York Center
12:51AM 41.1144 -75.9542 44° Northeast 197 227 4,600 -1,200 Descending New York Center
12:52AM 41.1542 -75.9047 43° Northeast 197 227 3,900 -300 Descending New York Center
12:53AM 41.1897 -75.8578 45° Northeast 191 220 4,000 -300 Climbing New York Center
12:54AM 41.2222 -75.8272 35° Northeast 167 192 3,400 -720 Descending New York Center
12:55AM 41.2567 -75.7967 34° Northeast 149 171 2,600 -780 Descending New York Center
12:56AM 41.2892 -75.7686 33° Northeast 144 166 1,900 -660 Descending New York Center
12:57AM 41.3239 -75.7381 33° Northeast 144 166 1,300 -420 Descending New York Center
12:58AM 41.3561 -75.7128 30° Northeast 144 166 1,100 2,820 Descending New York Center
12:59AM 41.3883 -75.6875 30° Northeast 144 166 7,000 6,180 Climbing New York Center